sensor_id;sensor_type;location;lat;lon;timestamp;temperature;humidity
16627;DHT22;8427;52.204;7.202;2023-11-21T00:00:21;8.00;94.10
16627;DHT22;8427;52.204;7.202;2023-11-21T00:02:49;7.90;94.20
16627;DHT22;8427;52.204;7.202;2023-11-21T00:05:17;8.00;94.20
16627;DHT22;8427;52.204;7.202;2023-11-21T00:07:45;7.90;94.10
16627;DHT22;8427;52.204;7.202;2023-11-21T00:10:13;8.10;94.10
16627;DHT22;8427;52.204;7.202;2023-11-21T00:12:44;7.90;94.20
16627;DHT22;8427;52.204;7.202;2023-11-21T00:15:14;8.00;94.20
16627;DHT22;8427;52.204;7.202;2023-11-21T00:17:43;8.10;94.10
16627;DHT22;8427;52.204;7.202;2023-11-21T00:20:10;8.20;94.20
16627;DHT22;8427;52.204;7.202;2023-11-21T00:22:41;7.90;94.20
16627;DHT22;8427;52.204;7.202;2023-11-21T00:25:09;8.00;94.20
16627;DHT22;8427;52.204;7.202;2023-11-21T00:27:38;8.10;94.30
16627;DHT22;8427;52.204;7.202;2023-11-21T00:30:08;7.90;94.30
16627;DHT22;8427;52.204;7.202;2023-11-21T00:32:36;8.20;94.30
16627;DHT22;8427;52.204;7.202;2023-11-21T00:35:05;8.20;94.20
16627;DHT22;8427;52.204;7.202;2023-11-21T00:37:33;8.20;94.20
16627;DHT22;8427;52.204;7.202;2023-11-21T00:40:01;8.10;94.20
16627;DHT22;8427;52.204;7.202;2023-11-21T00:42:31;8.30;94.20
16627;DHT22;8427;52.204;7.202;2023-11-21T00:45:00;8.20;94.20
16627;DHT22;8427;52.204;7.202;2023-11-21T00:47:29;8.30;94.20
16627;DHT22;8427;52.204;7.202;2023-11-21T00:49:57;8.20;94.20
16627;DHT22;8427;52.204;7.202;2023-11-21T00:52:26;8.20;94.00
16627;DHT22;8427;52.204;7.202;2023-11-21T00:54:54;8.10;94.20
16627;DHT22;8427;52.204;7.202;2023-11-21T00:57:22;8.30;94.10
16627;DHT22;8427;52.204;7.202;2023-11-21T00:59:50;8.30;94.00
16627;DHT22;8427;52.204;7.202;2023-11-21T01:02:18;8.20;94.00
16627;DHT22;8427;52.204;7.202;2023-11-21T01:04:47;8.20;94.10
16627;DHT22;8427;52.204;7.202;2023-11-21T01:07:15;8.10;94.10
16627;DHT22;8427;52.204;7.202;2023-11-21T01:09:43;8.00;94.10
16627;DHT22;8427;52.204;7.202;2023-11-21T01:12:11;8.20;94.30
16627;DHT22;8427;52.204;7.202;2023-11-21T01:14:39;8.20;94.20
16627;DHT22;8427;52.204;7.202;2023-11-21T01:17:07;8.20;94.30
16627;DHT22;8427;52.204;7.202;2023-11-21T01:19:35;8.20;94.20
16627;DHT22;8427;52.204;7.202;2023-11-21T01:22:05;8.20;94.20
16627;DHT22;8427;52.204;7.202;2023-11-21T01:24:33;8.10;94.30
16627;DHT22;8427;52.204;7.202;2023-11-21T01:27:01;8.20;94.10
16627;DHT22;8427;52.204;7.202;2023-11-21T01:29:29;8.20;94.10
16627;DHT22;8427;52.204;7.202;2023-11-21T01:31:57;8.20;94.00
16627;DHT22;8427;52.204;7.202;2023-11-21T01:34:25;8.30;94.00
16627;DHT22;8427;52.204;7.202;2023-11-21T01:36:53;8.10;94.00
16627;DHT22;8427;52.204;7.202;2023-11-21T01:39:22;8.20;94.00
16627;DHT22;8427;52.204;7.202;2023-11-21T01:41:51;8.30;94.10
16627;DHT22;8427;52.204;7.202;2023-11-21T01:44:19;8.30;93.90
16627;DHT22;8427;52.204;7.202;2023-11-21T01:46:47;8.10;93.90
16627;DHT22;8427;52.204;7.202;2023-11-21T01:49:16;8.40;93.90
16627;DHT22;8427;52.204;7.202;2023-11-21T01:51:47;8.40;93.90
16627;DHT22;8427;52.204;7.202;2023-11-21T01:54:16;8.30;93.90
16627;DHT22;8427;52.204;7.202;2023-11-21T01:56:46;8.30;93.90
16627;DHT22;8427;52.204;7.202;2023-11-21T01:59:18;8.10;94.00
16627;DHT22;8427;52.204;7.202;2023-11-21T02:01:47;8.30;94.00
16627;DHT22;8427;52.204;7.202;2023-11-21T02:04:18;8.30;94.00
16627;DHT22;8427;52.204;7.202;2023-11-21T02:06:46;8.30;94.00
16627;DHT22;8427;52.204;7.202;2023-11-21T02:09:14;8.20;93.90
16627;DHT22;8427;52.204;7.202;2023-11-21T02:11:42;8.30;93.80
16627;DHT22;8427;52.204;7.202;2023-11-21T02:14:12;8.40;93.80
16627;DHT22;8427;52.204;7.202;2023-11-21T02:16:40;8.30;93.90
16627;DHT22;8427;52.204;7.202;2023-11-21T02:19:11;8.20;93.80
16627;DHT22;8427;52.204;7.202;2023-11-21T02:21:40;8.30;93.80
16627;DHT22;8427;52.204;7.202;2023-11-21T02:24:10;8.30;93.80
16627;DHT22;8427;52.204;7.202;2023-11-21T02:26:38;8.40;93.90
16627;DHT22;8427;52.204;7.202;2023-11-21T02:29:07;8.40;93.80
16627;DHT22;8427;52.204;7.202;2023-11-21T02:31:38;8.20;93.70
16627;DHT22;8427;52.204;7.202;2023-11-21T02:34:14;8.20;93.80
16627;DHT22;8427;52.204;7.202;2023-11-21T02:36:42;8.30;93.80
16627;DHT22;8427;52.204;7.202;2023-11-21T02:39:12;8.20;93.80
16627;DHT22;8427;52.204;7.202;2023-11-21T02:41:40;8.50;93.80
16627;DHT22;8427;52.204;7.202;2023-11-21T02:44:08;8.50;93.70
16627;DHT22;8427;52.204;7.202;2023-11-21T02:46:37;8.50;93.60
16627;DHT22;8427;52.204;7.202;2023-11-21T02:49:06;8.40;93.70
16627;DHT22;8427;52.204;7.202;2023-11-21T02:51:36;8.50;93.60
16627;DHT22;8427;52.204;7.202;2023-11-21T02:54:06;8.50;93.70
16627;DHT22;8427;52.204;7.202;2023-11-21T02:56:36;8.40;93.70
16627;DHT22;8427;52.204;7.202;2023-11-21T02:59:04;8.40;93.60
16627;DHT22;8427;52.204;7.202;2023-11-21T03:01:32;8.50;93.70
16627;DHT22;8427;52.204;7.202;2023-11-21T03:04:00;8.50;93.80
16627;DHT22;8427;52.204;7.202;2023-11-21T03:06:28;8.40;93.70
16627;DHT22;8427;52.204;7.202;2023-11-21T03:08:56;8.50;93.60
16627;DHT22;8427;52.204;7.202;2023-11-21T03:11:24;8.40;93.70
16627;DHT22;8427;52.204;7.202;2023-11-21T03:13:53;8.60;93.60
16627;DHT22;8427;52.204;7.202;2023-11-21T03:16:21;8.60;93.60
16627;DHT22;8427;52.204;7.202;2023-11-21T03:18:49;8.50;93.50
16627;DHT22;8427;52.204;7.202;2023-11-21T03:21:17;8.60;93.40
16627;DHT22;8427;52.204;7.202;2023-11-21T03:23:46;8.60;93.50
16627;DHT22;8427;52.204;7.202;2023-11-21T03:26:13;8.60;93.40
16627;DHT22;8427;52.204;7.202;2023-11-21T03:28:41;8.50;93.40
16627;DHT22;8427;52.204;7.202;2023-11-21T03:31:10;8.50;93.40
16627;DHT22;8427;52.204;7.202;2023-11-21T03:33:38;8.50;93.40
16627;DHT22;8427;52.204;7.202;2023-11-21T03:36:07;8.60;93.30
16627;DHT22;8427;52.204;7.202;2023-11-21T03:38:36;8.70;93.30
16627;DHT22;8427;52.204;7.202;2023-11-21T03:41:05;8.50;93.30
16627;DHT22;8427;52.204;7.202;2023-11-21T03:43:34;8.70;93.30
16627;DHT22;8427;52.204;7.202;2023-11-21T03:46:02;8.60;93.40
16627;DHT22;8427;52.204;7.202;2023-11-21T03:48:31;8.60;93.50
16627;DHT22;8427;52.204;7.202;2023-11-21T03:50:59;8.60;93.50
16627;DHT22;8427;52.204;7.202;2023-11-21T03:53:27;8.50;93.50
16627;DHT22;8427;52.204;7.202;2023-11-21T03:55:55;8.50;93.40
16627;DHT22;8427;52.204;7.202;2023-11-21T03:58:23;8.30;93.60
16627;DHT22;8427;52.204;7.202;2023-11-21T04:00:51;8.60;93.70
16627;DHT22;8427;52.204;7.202;2023-11-21T04:03:19;8.60;93.70
16627;DHT22;8427;52.204;7.202;2023-11-21T04:05:48;8.70;93.50
16627;DHT22;8427;52.204;7.202;2023-11-21T04:08:16;8.20;93.60
16627;DHT22;8427;52.204;7.202;2023-11-21T04:10:44;8.60;93.70
16627;DHT22;8427;52.204;7.202;2023-11-21T04:13:12;8.50;93.80
16627;DHT22;8427;52.204;7.202;2023-11-21T04:15:40;8.60;93.80
16627;DHT22;8427;52.204;7.202;2023-11-21T04:18:08;8.50;93.70
16627;DHT22;8427;52.204;7.202;2023-11-21T04:20:36;8.50;93.80
16627;DHT22;8427;52.204;7.202;2023-11-21T04:23:05;8.20;93.70
16627;DHT22;8427;52.204;7.202;2023-11-21T04:25:33;8.40;93.90
16627;DHT22;8427;52.204;7.202;2023-11-21T04:28:01;8.40;93.90
16627;DHT22;8427;52.204;7.202;2023-11-21T04:30:29;8.30;93.90
16627;DHT22;8427;52.204;7.202;2023-11-21T04:32:57;8.40;94.00
16627;DHT22;8427;52.204;7.202;2023-11-21T04:35:25;8.40;94.00
16627;DHT22;8427;52.204;7.202;2023-11-21T04:37:53;8.60;93.90
16627;DHT22;8427;52.204;7.202;2023-11-21T04:40:22;8.40;94.00
16627;DHT22;8427;52.204;7.202;2023-11-21T04:42:50;8.30;94.00
16627;DHT22;8427;52.204;7.202;2023-11-21T04:45:18;8.50;94.00
16627;DHT22;8427;52.204;7.202;2023-11-21T04:47:46;8.40;93.90
16627;DHT22;8427;52.204;7.202;2023-11-21T04:50:14;8.40;93.90
16627;DHT22;8427;52.204;7.202;2023-11-21T04:52:42;8.50;94.00
16627;DHT22;8427;52.204;7.202;2023-11-21T04:55:10;8.40;93.90
16627;DHT22;8427;52.204;7.202;2023-11-21T04:57:39;8.60;93.90
16627;DHT22;8427;52.204;7.202;2023-11-21T05:00:09;8.50;93.90
16627;DHT22;8427;52.204;7.202;2023-11-21T05:02:37;8.40;94.00
16627;DHT22;8427;52.204;7.202;2023-11-21T05:05:06;8.50;94.00
16627;DHT22;8427;52.204;7.202;2023-11-21T05:07:38;8.20;94.00
16627;DHT22;8427;52.204;7.202;2023-11-21T05:10:06;8.40;94.00
16627;DHT22;8427;52.204;7.202;2023-11-21T05:12:40;8.40;94.10
16627;DHT22;8427;52.204;7.202;2023-11-21T05:15:08;8.30;94.30
16627;DHT22;8427;52.204;7.202;2023-11-21T05:17:37;8.40;94.20
16627;DHT22;8427;52.204;7.202;2023-11-21T05:20:12;8.40;94.20
16627;DHT22;8427;52.204;7.202;2023-11-21T05:22:40;8.30;94.20
16627;DHT22;8427;52.204;7.202;2023-11-21T05:25:09;8.40;94.20
16627;DHT22;8427;52.204;7.202;2023-11-21T05:27:39;8.40;94.20
16627;DHT22;8427;52.204;7.202;2023-11-21T05:30:08;8.40;94.30
16627;DHT22;8427;52.204;7.202;2023-11-21T05:32:38;8.40;94.30
16627;DHT22;8427;52.204;7.202;2023-11-21T05:35:07;8.20;94.30
16627;DHT22;8427;52.204;7.202;2023-11-21T05:37:38;8.20;94.20
16627;DHT22;8427;52.204;7.202;2023-11-21T05:40:07;8.30;94.20
16627;DHT22;8427;52.204;7.202;2023-11-21T05:42:36;8.50;94.20
16627;DHT22;8427;52.204;7.202;2023-11-21T05:45:07;8.40;94.30
16627;DHT22;8427;52.204;7.202;2023-11-21T05:47:39;8.30;94.30
16627;DHT22;8427;52.204;7.202;2023-11-21T05:50:09;8.40;94.20
16627;DHT22;8427;52.204;7.202;2023-11-21T05:52:38;8.30;94.30
16627;DHT22;8427;52.204;7.202;2023-11-21T05:55:07;8.50;94.30
16627;DHT22;8427;52.204;7.202;2023-11-21T05:57:37;8.30;94.20
16627;DHT22;8427;52.204;7.202;2023-11-21T06:00:10;8.50;94.30
16627;DHT22;8427;52.204;7.202;2023-11-21T06:02:39;8.20;94.20
16627;DHT22;8427;52.204;7.202;2023-11-21T06:05:08;8.30;94.30
16627;DHT22;8427;52.204;7.202;2023-11-21T06:07:37;8.40;94.20
16627;DHT22;8427;52.204;7.202;2023-11-21T06:10:07;8.30;94.40
16627;DHT22;8427;52.204;7.202;2023-11-21T06:12:38;8.30;94.40
16627;DHT22;8427;52.204;7.202;2023-11-21T06:15:09;8.20;94.50
16627;DHT22;8427;52.204;7.202;2023-11-21T06:17:40;8.30;94.50
16627;DHT22;8427;52.204;7.202;2023-11-21T06:20:10;8.40;94.50
16627;DHT22;8427;52.204;7.202;2023-11-21T06:22:42;8.50;94.40
16627;DHT22;8427;52.204;7.202;2023-11-21T06:25:11;8.40;94.30
16627;DHT22;8427;52.204;7.202;2023-11-21T06:27:42;8.40;94.30
16627;DHT22;8427;52.204;7.202;2023-11-21T06:30:12;8.50;94.40
16627;DHT22;8427;52.204;7.202;2023-11-21T06:32:42;8.50;94.30
16627;DHT22;8427;52.204;7.202;2023-11-21T06:35:12;8.40;94.40
16627;DHT22;8427;52.204;7.202;2023-11-21T06:37:44;8.50;94.40
16627;DHT22;8427;52.204;7.202;2023-11-21T06:40:16;8.60;94.40
16627;DHT22;8427;52.204;7.202;2023-11-21T06:42:45;8.50;94.30
16627;DHT22;8427;52.204;7.202;2023-11-21T06:45:15;8.50;94.30
16627;DHT22;8427;52.204;7.202;2023-11-21T06:47:43;8.50;94.20
16627;DHT22;8427;52.204;7.202;2023-11-21T06:50:12;8.50;94.10
16627;DHT22;8427;52.204;7.202;2023-11-21T06:52:39;8.60;94.20
16627;DHT22;8427;52.204;7.202;2023-11-21T06:55:08;8.50;94.20
16627;DHT22;8427;52.204;7.202;2023-11-21T06:57:36;8.60;94.30
16627;DHT22;8427;52.204;7.202;2023-11-21T07:00:05;8.60;94.30
16627;DHT22;8427;52.204;7.202;2023-11-21T07:02:37;8.50;94.20
16627;DHT22;8427;52.204;7.202;2023-11-21T07:05:06;8.70;94.20
16627;DHT22;8427;52.204;7.202;2023-11-21T07:07:34;8.60;94.20
16627;DHT22;8427;52.204;7.202;2023-11-21T07:10:04;8.50;94.20
16627;DHT22;8427;52.204;7.202;2023-11-21T07:12:32;8.60;94.10
16627;DHT22;8427;52.204;7.202;2023-11-21T07:15:01;8.60;94.10
16627;DHT22;8427;52.204;7.202;2023-11-21T07:17:29;8.60;94.00
16627;DHT22;8427;52.204;7.202;2023-11-21T07:19:59;8.40;94.00
16627;DHT22;8427;52.204;7.202;2023-11-21T07:22:27;8.50;94.00
16627;DHT22;8427;52.204;7.202;2023-11-21T07:24:55;8.50;94.00
16627;DHT22;8427;52.204;7.202;2023-11-21T07:27:24;8.50;94.10
16627;DHT22;8427;52.204;7.202;2023-11-21T07:29:52;8.50;94.10
16627;DHT22;8427;52.204;7.202;2023-11-21T07:32:20;8.60;94.10
16627;DHT22;8427;52.204;7.202;2023-11-21T07:34:48;8.60;94.00
16627;DHT22;8427;52.204;7.202;2023-11-21T07:37:17;8.50;94.00
16627;DHT22;8427;52.204;7.202;2023-11-21T07:39:46;8.60;93.90
16627;DHT22;8427;52.204;7.202;2023-11-21T07:42:14;8.50;93.90
16627;DHT22;8427;52.204;7.202;2023-11-21T07:44:41;8.60;93.80
16627;DHT22;8427;52.204;7.202;2023-11-21T07:47:09;8.50;94.00
16627;DHT22;8427;52.204;7.202;2023-11-21T07:49:37;8.40;93.90
16627;DHT22;8427;52.204;7.202;2023-11-21T07:52:05;8.60;94.00
16627;DHT22;8427;52.204;7.202;2023-11-21T07:54:35;8.70;93.90
16627;DHT22;8427;52.204;7.202;2023-11-21T07:57:03;8.70;94.10
16627;DHT22;8427;52.204;7.202;2023-11-21T07:59:31;8.70;93.90
16627;DHT22;8427;52.204;7.202;2023-11-21T08:01:59;8.80;93.90
16627;DHT22;8427;52.204;7.202;2023-11-21T08:04:27;8.80;93.90
16627;DHT22;8427;52.204;7.202;2023-11-21T08:06:59;8.70;93.80
16627;DHT22;8427;52.204;7.202;2023-11-21T08:09:28;8.80;93.70
16627;DHT22;8427;52.204;7.202;2023-11-21T08:11:57;8.70;93.70
16627;DHT22;8427;52.204;7.202;2023-11-21T08:14:27;8.80;93.80
16627;DHT22;8427;52.204;7.202;2023-11-21T08:16:55;8.90;93.80
16627;DHT22;8427;52.204;7.202;2023-11-21T08:19:24;8.80;93.80
16627;DHT22;8427;52.204;7.202;2023-11-21T08:21:52;8.70;93.60
16627;DHT22;8427;52.204;7.202;2023-11-21T08:24:21;8.90;93.60
16627;DHT22;8427;52.204;7.202;2023-11-21T08:26:49;8.90;93.60
16627;DHT22;8427;52.204;7.202;2023-11-21T08:29:18;8.90;93.60
16627;DHT22;8427;52.204;7.202;2023-11-21T08:31:47;8.90;93.30
16627;DHT22;8427;52.204;7.202;2023-11-21T08:34:14;8.90;93.40
16627;DHT22;8427;52.204;7.202;2023-11-21T08:36:43;8.90;93.50
16627;DHT22;8427;52.204;7.202;2023-11-21T08:39:12;8.90;93.60
16627;DHT22;8427;52.204;7.202;2023-11-21T08:41:43;9.00;93.60
16627;DHT22;8427;52.204;7.202;2023-11-21T08:44:11;9.00;93.60
16627;DHT22;8427;52.204;7.202;2023-11-21T08:46:40;9.00;93.40
16627;DHT22;8427;52.204;7.202;2023-11-21T08:49:08;8.90;93.50
16627;DHT22;8427;52.204;7.202;2023-11-21T08:51:36;9.00;93.60
16627;DHT22;8427;52.204;7.202;2023-11-21T08:54:04;9.10;93.40
16627;DHT22;8427;52.204;7.202;2023-11-21T08:56:34;9.10;93.40
16627;DHT22;8427;52.204;7.202;2023-11-21T08:59:02;8.90;93.30
16627;DHT22;8427;52.204;7.202;2023-11-21T09:01:31;8.90;93.50
16627;DHT22;8427;52.204;7.202;2023-11-21T09:04:01;9.00;93.40
16627;DHT22;8427;52.204;7.202;2023-11-21T09:06:29;9.10;93.40
16627;DHT22;8427;52.204;7.202;2023-11-21T09:08:57;9.00;93.30
16627;DHT22;8427;52.204;7.202;2023-11-21T09:11:25;8.90;93.40
16627;DHT22;8427;52.204;7.202;2023-11-21T09:13:58;9.10;93.20
16627;DHT22;8427;52.204;7.202;2023-11-21T09:16:26;9.20;93.30
16627;DHT22;8427;52.204;7.202;2023-11-21T09:18:54;9.20;93.30
16627;DHT22;8427;52.204;7.202;2023-11-21T09:21:23;9.20;93.10
16627;DHT22;8427;52.204;7.202;2023-11-21T09:23:52;9.10;93.10
16627;DHT22;8427;52.204;7.202;2023-11-21T09:26:21;9.30;93.30
16627;DHT22;8427;52.204;7.202;2023-11-21T09:28:48;9.40;93.20
16627;DHT22;8427;52.204;7.202;2023-11-21T09:31:16;9.40;93.10
16627;DHT22;8427;52.204;7.202;2023-11-21T09:33:46;9.40;92.90
16627;DHT22;8427;52.204;7.202;2023-11-21T09:36:14;9.40;92.90
16627;DHT22;8427;52.204;7.202;2023-11-21T09:38:44;9.40;93.00
16627;DHT22;8427;52.204;7.202;2023-11-21T09:41:15;9.30;92.90
16627;DHT22;8427;52.204;7.202;2023-11-21T09:43:47;9.30;92.80
16627;DHT22;8427;52.204;7.202;2023-11-21T09:46:20;9.40;93.00
16627;DHT22;8427;52.204;7.202;2023-11-21T09:48:51;9.40;93.00
16627;DHT22;8427;52.204;7.202;2023-11-21T09:51:20;9.50;92.90
16627;DHT22;8427;52.204;7.202;2023-11-21T09:53:51;9.50;93.00
16627;DHT22;8427;52.204;7.202;2023-11-21T09:56:19;9.50;93.00
16627;DHT22;8427;52.204;7.202;2023-11-21T09:58:52;9.30;93.00
16627;DHT22;8427;52.204;7.202;2023-11-21T10:01:21;9.50;93.00
16627;DHT22;8427;52.204;7.202;2023-11-21T10:03:50;9.60;93.00
16627;DHT22;8427;52.204;7.202;2023-11-21T10:06:18;9.50;92.90
16627;DHT22;8427;52.204;7.202;2023-11-21T10:08:46;9.60;92.80
16627;DHT22;8427;52.204;7.202;2023-11-21T10:11:24;9.60;92.80
16627;DHT22;8427;52.204;7.202;2023-11-21T10:13:53;9.70;92.80
16627;DHT22;8427;52.204;7.202;2023-11-21T10:16:25;9.50;92.80
16627;DHT22;8427;52.204;7.202;2023-11-21T10:18:54;9.50;92.70
16627;DHT22;8427;52.204;7.202;2023-11-21T10:21:38;9.40;92.80
16627;DHT22;8427;52.204;7.202;2023-11-21T10:24:06;9.40;93.00
16627;DHT22;8427;52.204;7.202;2023-11-21T10:26:36;9.50;93.10
16627;DHT22;8427;52.204;7.202;2023-11-21T10:29:18;9.40;92.70
16627;DHT22;8427;52.204;7.202;2023-11-21T10:31:49;9.40;92.80
16627;DHT22;8427;52.204;7.202;2023-11-21T10:34:19;9.60;92.90
16627;DHT22;8427;52.204;7.202;2023-11-21T10:36:48;9.50;92.90
16627;DHT22;8427;52.204;7.202;2023-11-21T10:39:17;9.60;92.90
16627;DHT22;8427;52.204;7.202;2023-11-21T10:41:48;9.60;93.10
16627;DHT22;8427;52.204;7.202;2023-11-21T10:44:17;9.50;92.70
16627;DHT22;8427;52.204;7.202;2023-11-21T10:46:49;9.30;92.60
16627;DHT22;8427;52.204;7.202;2023-11-21T10:49:17;9.50;93.20
16627;DHT22;8427;52.204;7.202;2023-11-21T10:51:46;9.50;93.10
16627;DHT22;8427;52.204;7.202;2023-11-21T10:54:17;9.40;93.20
16627;DHT22;8427;52.204;7.202;2023-11-21T10:56:44;9.50;93.20
16627;DHT22;8427;52.204;7.202;2023-11-21T10:59:14;9.40;92.90
16627;DHT22;8427;52.204;7.202;2023-11-21T11:01:45;9.40;93.20
16627;DHT22;8427;52.204;7.202;2023-11-21T11:04:14;9.30;93.00
16627;DHT22;8427;52.204;7.202;2023-11-21T11:06:43;9.30;93.00
16627;DHT22;8427;52.204;7.202;2023-11-21T11:09:13;9.40;92.70
16627;DHT22;8427;52.204;7.202;2023-11-21T11:11:43;9.30;92.80
16627;DHT22;8427;52.204;7.202;2023-11-21T11:14:12;9.40;92.90
16627;DHT22;8427;52.204;7.202;2023-11-21T11:16:41;9.40;93.00
16627;DHT22;8427;52.204;7.202;2023-11-21T11:19:10;9.40;93.20
16627;DHT22;8427;52.204;7.202;2023-11-21T11:21:47;9.60;93.10
16627;DHT22;8427;52.204;7.202;2023-11-21T11:24:32;9.40;92.30
16627;DHT22;8427;52.204;7.202;2023-11-21T11:27:09;9.40;92.30
16627;DHT22;8427;52.204;7.202;2023-11-21T11:29:46;9.40;92.50
16627;DHT22;8427;52.204;7.202;2023-11-21T11:32:24;9.50;92.70
16627;DHT22;8427;52.204;7.202;2023-11-21T11:35:01;9.60;92.60
16627;DHT22;8427;52.204;7.202;2023-11-21T11:37:31;9.30;92.30
16627;DHT22;8427;52.204;7.202;2023-11-21T11:40:00;9.30;92.20
16627;DHT22;8427;52.204;7.202;2023-11-21T11:42:28;9.40;91.80
16627;DHT22;8427;52.204;7.202;2023-11-21T11:44:57;9.30;91.80
16627;DHT22;8427;52.204;7.202;2023-11-21T11:47:28;9.40;92.00
16627;DHT22;8427;52.204;7.202;2023-11-21T11:50:02;9.40;91.90
16627;DHT22;8427;52.204;7.202;2023-11-21T11:52:36;9.30;91.60
16627;DHT22;8427;52.204;7.202;2023-11-21T11:55:07;9.20;91.50
16627;DHT22;8427;52.204;7.202;2023-11-21T11:57:38;9.00;91.00
16627;DHT22;8427;52.204;7.202;2023-11-21T12:00:14;9.10;91.20
16627;DHT22;8427;52.204;7.202;2023-11-21T12:02:47;9.10;91.20
16627;DHT22;8427;52.204;7.202;2023-11-21T12:05:16;9.10;91.40
16627;DHT22;8427;52.204;7.202;2023-11-21T12:07:47;9.10;91.60
16627;DHT22;8427;52.204;7.202;2023-11-21T12:10:17;8.80;90.90
16627;DHT22;8427;52.204;7.202;2023-11-21T12:12:46;9.00;90.90
16627;DHT22;8427;52.204;7.202;2023-11-21T12:15:14;9.10;90.60
16627;DHT22;8427;52.204;7.202;2023-11-21T12:17:43;9.20;90.60
16627;DHT22;8427;52.204;7.202;2023-11-21T12:20:14;9.30;91.10
16627;DHT22;8427;52.204;7.202;2023-11-21T12:22:44;9.20;90.50
16627;DHT22;8427;52.204;7.202;2023-11-21T12:25:15;9.00;90.00
16627;DHT22;8427;52.204;7.202;2023-11-21T12:27:46;8.90;90.20
16627;DHT22;8427;52.204;7.202;2023-11-21T12:30:17;9.10;90.60
16627;DHT22;8427;52.204;7.202;2023-11-21T12:32:48;9.10;90.80
16627;DHT22;8427;52.204;7.202;2023-11-21T12:35:19;9.00;91.00
16627;DHT22;8427;52.204;7.202;2023-11-21T12:37:48;8.90;90.90
16627;DHT22;8427;52.204;7.202;2023-11-21T12:40:17;9.00;91.10
16627;DHT22;8427;52.204;7.202;2023-11-21T12:42:46;9.00;91.10
16627;DHT22;8427;52.204;7.202;2023-11-21T12:45:22;8.90;91.20
16627;DHT22;8427;52.204;7.202;2023-11-21T12:47:54;9.00;90.50
16627;DHT22;8427;52.204;7.202;2023-11-21T12:50:26;9.00;90.60
16627;DHT22;8427;52.204;7.202;2023-11-21T12:52:59;8.90;90.60
16627;DHT22;8427;52.204;7.202;2023-11-21T12:55:30;8.90;90.60
16627;DHT22;8427;52.204;7.202;2023-11-21T12:58:01;8.90;90.80
16627;DHT22;8427;52.204;7.202;2023-11-21T13:00:37;9.00;90.50
16627;DHT22;8427;52.204;7.202;2023-11-21T13:03:05;8.70;89.60
16627;DHT22;8427;52.204;7.202;2023-11-21T13:05:36;8.80;89.50
16627;DHT22;8427;52.204;7.202;2023-11-21T13:08:07;8.90;90.00
16627;DHT22;8427;52.204;7.202;2023-11-21T13:10:37;8.70;90.10
16627;DHT22;8427;52.204;7.202;2023-11-21T13:13:07;8.70;90.10
16627;DHT22;8427;52.204;7.202;2023-11-21T13:15:39;8.60;89.60
16627;DHT22;8427;52.204;7.202;2023-11-21T13:18:07;8.70;90.00
16627;DHT22;8427;52.204;7.202;2023-11-21T13:20:39;8.70;90.10
16627;DHT22;8427;52.204;7.202;2023-11-21T13:23:08;8.80;89.80
16627;DHT22;8427;52.204;7.202;2023-11-21T13:25:38;8.80;89.90
16627;DHT22;8427;52.204;7.202;2023-11-21T13:28:08;8.80;89.60
16627;DHT22;8427;52.204;7.202;2023-11-21T13:30:38;8.70;89.00
16627;DHT22;8427;52.204;7.202;2023-11-21T13:33:07;8.70;88.80
16627;DHT22;8427;52.204;7.202;2023-11-21T13:35:39;8.90;89.00
16627;DHT22;8427;52.204;7.202;2023-11-21T13:38:10;8.70;88.10
16627;DHT22;8427;52.204;7.202;2023-11-21T13:40:40;8.70;89.00
16627;DHT22;8427;52.204;7.202;2023-11-21T13:43:12;8.70;88.30
16627;DHT22;8427;52.204;7.202;2023-11-21T13:45:40;8.50;88.20
16627;DHT22;8427;52.204;7.202;2023-11-21T13:48:10;8.40;87.70
16627;DHT22;8427;52.204;7.202;2023-11-21T13:50:42;8.40;86.90
16627;DHT22;8427;52.204;7.202;2023-11-21T13:53:15;8.40;86.90
16627;DHT22;8427;52.204;7.202;2023-11-21T13:55:48;8.40;85.60
16627;DHT22;8427;52.204;7.202;2023-11-21T13:58:17;8.30;85.40
16627;DHT22;8427;52.204;7.202;2023-11-21T14:00:49;8.40;86.60
16627;DHT22;8427;52.204;7.202;2023-11-21T14:03:23;8.40;86.40
16627;DHT22;8427;52.204;7.202;2023-11-21T14:06:00;8.50;85.50
16627;DHT22;8427;52.204;7.202;2023-11-21T14:08:35;8.30;84.60
16627;DHT22;8427;52.204;7.202;2023-11-21T14:11:03;8.30;85.20
16627;DHT22;8427;52.204;7.202;2023-11-21T14:13:33;8.40;84.50
16627;DHT22;8427;52.204;7.202;2023-11-21T14:16:01;8.20;85.90
16627;DHT22;8427;52.204;7.202;2023-11-21T14:18:29;8.30;85.70
16627;DHT22;8427;52.204;7.202;2023-11-21T14:21:06;8.40;86.80
16627;DHT22;8427;52.204;7.202;2023-11-21T14:23:37;8.20;85.50
16627;DHT22;8427;52.204;7.202;2023-11-21T14:26:05;8.20;84.60
16627;DHT22;8427;52.204;7.202;2023-11-21T14:28:33;8.10;84.50
16627;DHT22;8427;52.204;7.202;2023-11-21T14:31:03;8.20;84.70
16627;DHT22;8427;52.204;7.202;2023-11-21T14:33:31;8.00;84.80
16627;DHT22;8427;52.204;7.202;2023-11-21T14:35:59;8.00;85.60
16627;DHT22;8427;52.204;7.202;2023-11-21T14:38:28;8.00;85.80
16627;DHT22;8427;52.204;7.202;2023-11-21T14:40:56;8.00;86.00
16627;DHT22;8427;52.204;7.202;2023-11-21T14:43:24;7.90;86.00
16627;DHT22;8427;52.204;7.202;2023-11-21T14:45:52;8.00;85.70
16627;DHT22;8427;52.204;7.202;2023-11-21T14:48:22;7.90;85.80
16627;DHT22;8427;52.204;7.202;2023-11-21T14:51:08;8.00;86.50
16627;DHT22;8427;52.204;7.202;2023-11-21T14:53:59;7.70;84.90
16627;DHT22;8427;52.204;7.202;2023-11-21T14:56:32;7.90;85.70
16627;DHT22;8427;52.204;7.202;2023-11-21T14:59:02;7.70;85.30
16627;DHT22;8427;52.204;7.202;2023-11-21T15:01:35;7.60;84.20
16627;DHT22;8427;52.204;7.202;2023-11-21T15:04:12;7.50;84.80
16627;DHT22;8427;52.204;7.202;2023-11-21T15:06:52;7.40;84.40
16627;DHT22;8427;52.204;7.202;2023-11-21T15:09:23;7.40;84.20
16627;DHT22;8427;52.204;7.202;2023-11-21T15:12:03;7.60;84.90
16627;DHT22;8427;52.204;7.202;2023-11-21T15:14:41;7.50;85.10
16627;DHT22;8427;52.204;7.202;2023-11-21T15:17:09;7.50;84.60
16627;DHT22;8427;52.204;7.202;2023-11-21T15:19:38;7.20;85.30
16627;DHT22;8427;52.204;7.202;2023-11-21T15:22:08;7.30;85.90
16627;DHT22;8427;52.204;7.202;2023-11-21T15:24:38;7.20;86.70
16627;DHT22;8427;52.204;7.202;2023-11-21T15:27:08;7.30;86.40
16627;DHT22;8427;52.204;7.202;2023-11-21T15:29:36;7.40;87.40
16627;DHT22;8427;52.204;7.202;2023-11-21T15:32:05;7.20;86.40
16627;DHT22;8427;52.204;7.202;2023-11-21T15:34:34;7.30;86.60
16627;DHT22;8427;52.204;7.202;2023-11-21T15:37:02;7.30;86.70
16627;DHT22;8427;52.204;7.202;2023-11-21T15:39:31;7.20;86.50
16627;DHT22;8427;52.204;7.202;2023-11-21T15:42:00;7.30;86.50
16627;DHT22;8427;52.204;7.202;2023-11-21T15:44:30;7.10;87.50
16627;DHT22;8427;52.204;7.202;2023-11-21T15:47:00;7.30;86.70
16627;DHT22;8427;52.204;7.202;2023-11-21T15:49:31;7.30;87.30
16627;DHT22;8427;52.204;7.202;2023-11-21T15:52:03;7.20;87.50
16627;DHT22;8427;52.204;7.202;2023-11-21T15:54:32;7.20;87.80
16627;DHT22;8427;52.204;7.202;2023-11-21T15:57:03;7.20;87.70
16627;DHT22;8427;52.204;7.202;2023-11-21T15:59:32;7.10;88.10
16627;DHT22;8427;52.204;7.202;2023-11-21T16:02:01;7.10;88.60
16627;DHT22;8427;52.204;7.202;2023-11-21T16:04:32;7.20;88.70
16627;DHT22;8427;52.204;7.202;2023-11-21T16:06:59;7.00;88.30
16627;DHT22;8427;52.204;7.202;2023-11-21T16:09:28;7.00;87.80
16627;DHT22;8427;52.204;7.202;2023-11-21T16:11:58;7.10;87.60
16627;DHT22;8427;52.204;7.202;2023-11-21T16:14:30;6.90;88.30
16627;DHT22;8427;52.204;7.202;2023-11-21T16:17:03;7.20;88.70